Terminal Aerodrome Forecast
Issued by NWS Atlanta, GA

Home | Current Version | Previous Version | Text Only | Print | Product List | Glossary On
Versions: 1 2 3 4 5 6 7 8 9 10 11 12 13 14 15 16 17 18 19 20 21 22 23 24 25 26 27 28 29 30
000
FTUS42 KFFC 290857 AAA
TAFAHN
TAF AMD
KAHN 290857Z 2909/3006 31005KT 4SM -RADZ BR SCT005 BKN025
      TEMPO 2909/2912 2SM RA BR BKN005
     FM291200 31005KT 3SM -RA BR BKN007 OVC012
     FM291400 32003KT 6SM BR SCT008 OVC015
     FM291700 32004KT P6SM SCT015 BKN025
     FM300200 32002KT 4SM BR BKN010=

USA.gov is the U.S. government's official web portal to all federal, state and local government web resources and services.